sensor_id;sensor_type;location;lat;lon;timestamp;pressure;altitude;pressure_sealevel;temperature;humidity
13011;BME280;6786;57.632;11.962;2023-05-01T00:01:51;101257.31;;;18.97;38.33
13011;BME280;6786;57.632;11.962;2023-05-01T00:04:19;101254.63;;;18.97;38.33
13011;BME280;6786;57.632;11.962;2023-05-01T00:06:49;101236.34;;;18.91;38.33
13011;BME280;6786;57.632;11.962;2023-05-01T00:09:17;101243.91;;;18.97;38.32
13011;BME280;6786;57.632;11.962;2023-05-01T00:11:47;101241.09;;;18.98;38.32
13011;BME280;6786;57.632;11.962;2023-05-01T00:14:15;101235.75;;;18.98;38.27
13011;BME280;6786;57.632;11.962;2023-05-01T00:16:43;101246.47;;;18.98;38.30
13011;BME280;6786;57.632;11.962;2023-05-01T00:19:12;101238.56;;;18.97;38.42
13011;BME280;6786;57.632;11.962;2023-05-01T00:21:44;101238.56;;;18.97;38.39
13011;BME280;6786;57.632;11.962;2023-05-01T00:24:13;101234.03;;;18.97;38.39
13011;BME280;6786;57.632;11.962;2023-05-01T00:26:43;101229.78;;;18.95;38.30
13011;BME280;6786;57.632;11.962;2023-05-01T00:29:12;101228.66;;;18.97;38.21
13011;BME280;6786;57.632;11.962;2023-05-01T00:31:40;101223.31;;;18.97;38.36
13011;BME280;6786;57.632;11.962;2023-05-01T00:34:09;101217.13;;;18.97;38.29
13011;BME280;6786;57.632;11.962;2023-05-01T00:36:37;101217.38;;;18.94;38.38
13011;BME280;6786;57.632;11.962;2023-05-01T00:39:05;101227.84;;;18.97;38.24
13011;BME280;6786;57.632;11.962;2023-05-01T00:41:34;101215.41;;;18.96;38.34
13011;BME280;6786;57.632;11.962;2023-05-01T00:44:02;101206.66;;;18.94;38.38
13011;BME280;6786;57.632;11.962;2023-05-01T00:46:33;101217.81;;;18.99;38.33
13011;BME280;6786;57.632;11.962;2023-05-01T00:49:01;101217.94;;;18.97;38.29
13011;BME280;6786;57.632;11.962;2023-05-01T00:51:30;101212.59;;;18.97;38.50
13011;BME280;6786;57.632;11.962;2023-05-01T00:53:59;101206.41;;;18.97;38.33
13011;BME280;6786;57.632;11.962;2023-05-01T00:56:27;101202.75;;;18.98;38.32
13011;BME280;6786;57.632;11.962;2023-05-01T00:58:56;101205.53;;;18.96;38.35
13011;BME280;6786;57.632;11.962;2023-05-01T01:01:24;101202.00;;;18.96;38.36
13011;BME280;6786;57.632;11.962;2023-05-01T01:03:54;101205.53;;;18.96;38.44
13011;BME280;6786;57.632;11.962;2023-05-01T01:06:28;101190.34;;;18.97;38.30
13011;BME280;6786;57.632;11.962;2023-05-01T01:09:06;101181.81;;;18.92;38.33
13011;BME280;6786;57.632;11.962;2023-05-01T01:11:48;101193.97;;;18.96;38.28
13011;BME280;6786;57.632;11.962;2023-05-01T01:14:25;101176.94;;;18.86;38.20
13011;BME280;6786;57.632;11.962;2023-05-01T01:16:57;101193.97;;;18.96;38.35
13011;BME280;6786;57.632;11.962;2023-05-01T01:19:47;101187.78;;;18.95;38.36
13011;BME280;6786;57.632;11.962;2023-05-01T01:22:24;101180.56;;;18.96;38.28
13011;BME280;6786;57.632;11.962;2023-05-01T01:25:14;101180.56;;;18.96;38.34
13011;BME280;6786;57.632;11.962;2023-05-01T01:28:01;101176.19;;;18.95;38.29
13011;BME280;6786;57.632;11.962;2023-05-01T01:30:59;101171.72;;;18.95;38.38
13011;BME280;6786;57.632;11.962;2023-05-01T01:33:49;101165.72;;;18.92;38.37
13011;BME280;6786;57.632;11.962;2023-05-01T01:36:26;101171.81;;;18.94;38.40
13011;BME280;6786;57.632;11.962;2023-05-01T01:39:07;101163.78;;;18.94;38.46
13011;BME280;6786;57.632;11.962;2023-05-01T01:41:38;101149.91;;;18.89;38.39
13011;BME280;6786;57.632;11.962;2023-05-01T01:44:12;101165.50;;;18.95;38.38
13011;BME280;6786;57.632;11.962;2023-05-01T01:46:47;101149.41;;;18.95;38.44
13011;BME280;6786;57.632;11.962;2023-05-01T01:49:20;101138.94;;;18.92;38.49
13011;BME280;6786;57.632;11.962;2023-05-01T01:51:50;101149.41;;;18.95;38.41
13011;BME280;6786;57.632;11.962;2023-05-01T01:54:23;101144.06;;;18.95;38.39
13011;BME280;6786;57.632;11.962;2023-05-01T01:56:54;101139.56;;;18.95;38.51
13011;BME280;6786;57.632;11.962;2023-05-01T01:59:24;101132.59;;;18.93;38.37
13011;BME280;6786;57.632;11.962;2023-05-01T02:01:54;101137.72;;;18.96;38.44
13011;BME280;6786;57.632;11.962;2023-05-01T02:04:25;101136.03;;;18.95;38.41
13011;BME280;6786;57.632;11.962;2023-05-01T02:06:55;101124.31;;;18.96;38.51
13011;BME280;6786;57.632;11.962;2023-05-01T02:09:25;101135.03;;;18.96;38.53
13011;BME280;6786;57.632;11.962;2023-05-01T02:11:55;101128.84;;;18.95;38.37
13011;BME280;6786;57.632;11.962;2023-05-01T02:14:25;101118.97;;;18.96;38.52
13011;BME280;6786;57.632;11.962;2023-05-01T02:16:54;101113.59;;;18.96;38.47
13011;BME280;6786;57.632;11.962;2023-05-01T02:19:26;101113.59;;;18.96;38.53
13011;BME280;6786;57.632;11.962;2023-05-01T02:21:56;101105.94;;;18.91;38.40
13011;BME280;6786;57.632;11.962;2023-05-01T02:24:26;101118.97;;;18.96;38.58
13011;BME280;6786;57.632;11.962;2023-05-01T02:26:56;101108.25;;;18.96;38.54
13011;BME280;6786;57.632;11.962;2023-05-01T02:29:27;101108.25;;;18.96;38.49
13011;BME280;6786;57.632;11.962;2023-05-01T02:31:56;101099.25;;;18.97;38.53
13011;BME280;6786;57.632;11.962;2023-05-01T02:34:26;101101.06;;;18.96;38.63
13011;BME280;6786;57.632;11.962;2023-05-01T02:36:54;101103.75;;;18.96;38.54
13011;BME280;6786;57.632;11.962;2023-05-01T02:39:22;101089.50;;;18.96;38.61
13011;BME280;6786;57.632;11.962;2023-05-01T02:41:51;101087.69;;;18.96;38.52
13011;BME280;6786;57.632;11.962;2023-05-01T02:44:23;101083.19;;;18.97;38.49
13011;BME280;6786;57.632;11.962;2023-05-01T02:46:54;101088.53;;;18.97;38.61
13011;BME280;6786;57.632;11.962;2023-05-01T02:49:23;101081.47;;;18.96;38.58
13011;BME280;6786;57.632;11.962;2023-05-01T02:51:52;101083.19;;;18.97;38.54
13011;BME280;6786;57.632;11.962;2023-05-01T02:54:21;101083.19;;;18.97;38.56
13011;BME280;6786;57.632;11.962;2023-05-01T02:56:49;101077.84;;;18.97;38.58
13011;BME280;6786;57.632;11.962;2023-05-01T02:59:17;101072.47;;;18.97;38.65
13011;BME280;6786;57.632;11.962;2023-05-01T03:01:46;101073.31;;;18.97;38.58
13011;BME280;6786;57.632;11.962;2023-05-01T03:04:14;101065.38;;;18.96;38.65
13011;BME280;6786;57.632;11.962;2023-05-01T03:06:42;101054.69;;;18.96;38.61
13011;BME280;6786;57.632;11.962;2023-05-01T03:09:12;101058.09;;;18.98;38.63
13011;BME280;6786;57.632;11.962;2023-05-01T03:11:40;101047.38;;;18.98;38.61
13011;BME280;6786;57.632;11.962;2023-05-01T03:14:08;101045.69;;;18.97;38.56
13011;BME280;6786;57.632;11.962;2023-05-01T03:16:37;101041.16;;;18.97;38.62
13011;BME280;6786;57.632;11.962;2023-05-01T03:19:05;101034.97;;;18.97;38.64
13011;BME280;6786;57.632;11.962;2023-05-01T03:21:33;101040.34;;;18.97;38.66
13011;BME280;6786;57.632;11.962;2023-05-01T03:24:02;101031.44;;;18.96;38.69
13011;BME280;6786;57.632;11.962;2023-05-01T03:26:32;101038.59;;;18.96;38.76
13011;BME280;6786;57.632;11.962;2023-05-01T03:29:00;101034.97;;;18.97;38.62
13011;BME280;6786;57.632;11.962;2023-05-01T03:31:28;101022.53;;;18.96;38.67
13011;BME280;6786;57.632;11.962;2023-05-01T03:33:57;101017.19;;;18.96;38.71
13011;BME280;6786;57.632;11.962;2023-05-01T03:36:25;101011.81;;;18.96;38.77
13011;BME280;6786;57.632;11.962;2023-05-01T03:38:54;101009.16;;;18.96;38.73
13011;BME280;6786;57.632;11.962;2023-05-01T03:41:22;101004.53;;;18.98;38.78
13011;BME280;6786;57.632;11.962;2023-05-01T03:43:52;100999.16;;;18.98;38.74
13011;BME280;6786;57.632;11.962;2023-05-01T03:46:20;100997.47;;;18.97;38.77
13011;BME280;6786;57.632;11.962;2023-05-01T03:48:50;101010.75;;;18.98;38.67
13011;BME280;6786;57.632;11.962;2023-05-01T03:51:18;101002.84;;;18.97;38.68
13011;BME280;6786;57.632;11.962;2023-05-01T03:53:46;100997.47;;;18.97;38.73
13011;BME280;6786;57.632;11.962;2023-05-01T03:56:14;100998.19;;;18.99;38.73
13011;BME280;6786;57.632;11.962;2023-05-01T03:58:42;100986.88;;;18.95;38.72
13011;BME280;6786;57.632;11.962;2023-05-01T04:01:12;100984.09;;;18.97;38.82
13011;BME280;6786;57.632;11.962;2023-05-01T04:03:40;100981.41;;;18.97;38.76
13011;BME280;6786;57.632;11.962;2023-05-01T04:06:08;100992.94;;;18.97;38.77
13011;BME280;6786;57.632;11.962;2023-05-01T04:08:37;100986.75;;;18.97;38.81
13011;BME280;6786;57.632;11.962;2023-05-01T04:11:05;100983.94;;;18.98;38.75
13011;BME280;6786;57.632;11.962;2023-05-01T04:13:33;100982.09;;;18.99;38.82
13011;BME280;6786;57.632;11.962;2023-05-01T04:16:01;100979.44;;;18.99;38.75
13011;BME280;6786;57.632;11.962;2023-05-01T04:18:31;100973.25;;;18.98;38.75
13011;BME280;6786;57.632;11.962;2023-05-01T04:20:59;100972.38;;;18.98;38.85
13011;BME280;6786;57.632;11.962;2023-05-01T04:23:27;100968.72;;;18.99;38.80
13011;BME280;6786;57.632;11.962;2023-05-01T04:25:55;100965.34;;;18.97;38.85
13011;BME280;6786;57.632;11.962;2023-05-01T04:28:23;100961.78;;;18.96;38.77
13011;BME280;6786;57.632;11.962;2023-05-01T04:30:52;100965.34;;;18.97;38.91
13011;BME280;6786;57.632;11.962;2023-05-01T04:33:20;100954.63;;;18.97;38.85
13011;BME280;6786;57.632;11.962;2023-05-01T04:35:49;100956.44;;;18.96;38.88
13011;BME280;6786;57.632;11.962;2023-05-01T04:38:17;100948.41;;;18.96;38.90
13011;BME280;6786;57.632;11.962;2023-05-01T04:40:45;100949.25;;;18.97;38.92
13011;BME280;6786;57.632;11.962;2023-05-01T04:43:13;100943.91;;;18.97;38.79
13011;BME280;6786;57.632;11.962;2023-05-01T04:45:42;100949.25;;;18.97;38.91
13011;BME280;6786;57.632;11.962;2023-05-01T04:48:10;100943.91;;;18.97;38.89
13011;BME280;6786;57.632;11.962;2023-05-01T04:50:38;100927.84;;;18.97;38.94
13011;BME280;6786;57.632;11.962;2023-05-01T04:53:08;100930.38;;;18.98;38.84
13011;BME280;6786;57.632;11.962;2023-05-01T04:55:36;100937.56;;;18.98;38.98
13011;BME280;6786;57.632;11.962;2023-05-01T04:58:04;100925.03;;;18.98;38.85
13011;BME280;6786;57.632;11.962;2023-05-01T05:00:32;100924.16;;;18.98;38.89
13011;BME280;6786;57.632;11.962;2023-05-01T05:03:00;100913.44;;;18.98;38.89
13011;BME280;6786;57.632;11.962;2023-05-01T05:05:29;100912.72;;;18.96;38.94
13011;BME280;6786;57.632;11.962;2023-05-01T05:07:57;100920.50;;;18.99;39.04
13011;BME280;6786;57.632;11.962;2023-05-01T05:10:27;100915.13;;;18.99;38.98
13011;BME280;6786;57.632;11.962;2023-05-01T05:12:55;100906.41;;;18.97;38.91
13011;BME280;6786;57.632;11.962;2023-05-01T05:15:23;100908.94;;;18.98;39.05
13011;BME280;6786;57.632;11.962;2023-05-01T05:17:51;100899.06;;;18.99;38.96
13011;BME280;6786;57.632;11.962;2023-05-01T05:20:22;100905.28;;;18.99;39.04
13011;BME280;6786;57.632;11.962;2023-05-01T05:22:50;100899.06;;;18.99;38.98
13011;BME280;6786;57.632;11.962;2023-05-01T05:25:18;100897.25;;;18.99;39.05
13011;BME280;6786;57.632;11.962;2023-05-01T05:27:48;100900.91;;;18.98;39.02
13011;BME280;6786;57.632;11.962;2023-05-01T05:30:16;100899.06;;;18.99;39.12
13011;BME280;6786;57.632;11.962;2023-05-01T05:32:45;100897.38;;;18.98;39.08
13011;BME280;6786;57.632;11.962;2023-05-01T05:35:14;100898.09;;;19.00;39.09
13011;BME280;6786;57.632;11.962;2023-05-01T05:37:42;100896.53;;;18.97;39.12
13011;BME280;6786;57.632;11.962;2023-05-01T05:40:12;100896.53;;;18.97;39.12
13011;BME280;6786;57.632;11.962;2023-05-01T05:42:40;100892.03;;;18.98;39.02
13011;BME280;6786;57.632;11.962;2023-05-01T05:45:10;100892.03;;;18.98;39.15
13011;BME280;6786;57.632;11.962;2023-05-01T05:47:38;100890.34;;;18.97;39.20
13011;BME280;6786;57.632;11.962;2023-05-01T05:50:07;100888.34;;;18.99;39.12
13011;BME280;6786;57.632;11.962;2023-05-01T05:52:35;100893.72;;;18.99;39.09
13011;BME280;6786;57.632;11.962;2023-05-01T05:55:04;100884.72;;;19.00;39.04
13011;BME280;6786;57.632;11.962;2023-05-01T05:57:33;100879.34;;;19.00;39.20
13011;BME280;6786;57.632;11.962;2023-05-01T06:00:03;100884.72;;;19.00;39.04
13011;BME280;6786;57.632;11.962;2023-05-01T06:02:33;100879.34;;;19.00;39.10
13011;BME280;6786;57.632;11.962;2023-05-01T06:05:02;100884.72;;;19.00;39.16
13011;BME280;6786;57.632;11.962;2023-05-01T06:07:30;100874.00;;;19.00;39.15
13011;BME280;6786;57.632;11.962;2023-05-01T06:09:58;100874.97;;;18.99;39.13
13011;BME280;6786;57.632;11.962;2023-05-01T06:12:30;100868.91;;;18.97;39.11
13011;BME280;6786;57.632;11.962;2023-05-01T06:15:03;100868.66;;;19.00;39.27
13011;BME280;6786;57.632;11.962;2023-05-01T06:17:31;100859.88;;;18.98;39.20
13011;BME280;6786;57.632;11.962;2023-05-01T06:20:01;100866.94;;;18.99;39.27
13011;BME280;6786;57.632;11.962;2023-05-01T06:22:31;100859.75;;;18.99;39.30
13011;BME280;6786;57.632;11.962;2023-05-01T06:24:59;100855.25;;;19.00;39.24
13011;BME280;6786;57.632;11.962;2023-05-01T06:27:28;100851.13;;;18.96;39.26
13011;BME280;6786;57.632;11.962;2023-05-01T06:29:56;100828.53;;;18.89;39.25
13011;BME280;6786;57.632;11.962;2023-05-01T06:32:24;100837.72;;;18.96;39.41
13011;BME280;6786;57.632;11.962;2023-05-01T06:34:52;100840.41;;;18.96;39.33
13011;BME280;6786;57.632;11.962;2023-05-01T06:37:22;100832.38;;;18.96;39.42
13011;BME280;6786;57.632;11.962;2023-05-01T06:39:50;100829.69;;;18.96;39.45
13011;BME280;6786;57.632;11.962;2023-05-01T06:42:18;100824.34;;;18.96;39.44
13011;BME280;6786;57.632;11.962;2023-05-01T06:44:47;100823.50;;;18.95;39.45
13011;BME280;6786;57.632;11.962;2023-05-01T06:47:15;100813.63;;;18.96;39.38
13011;BME280;6786;57.632;11.962;2023-05-01T06:49:43;100818.97;;;18.96;39.46
13011;BME280;6786;57.632;11.962;2023-05-01T06:52:11;100811.94;;;18.95;39.45
13011;BME280;6786;57.632;11.962;2023-05-01T06:54:40;100802.22;;;18.94;39.54
13011;BME280;6786;57.632;11.962;2023-05-01T06:57:09;100801.22;;;18.95;39.48
13011;BME280;6786;57.632;11.962;2023-05-01T06:59:37;100796.72;;;18.95;39.43
13011;BME280;6786;57.632;11.962;2023-05-01T07:02:06;100797.56;;;18.96;39.53
13011;BME280;6786;57.632;11.962;2023-05-01T07:04:34;100797.56;;;18.96;39.54
13011;BME280;6786;57.632;11.962;2023-05-01T07:07:02;100792.19;;;18.96;39.42
13011;BME280;6786;57.632;11.962;2023-05-01T07:09:30;100793.06;;;18.96;39.65
13011;BME280;6786;57.632;11.962;2023-05-01T07:12:00;100783.19;;;18.97;39.58
13011;BME280;6786;57.632;11.962;2023-05-01T07:14:28;100781.47;;;18.96;39.59
13011;BME280;6786;57.632;11.962;2023-05-01T07:16:57;100780.66;;;18.95;39.63
13011;BME280;6786;57.632;11.962;2023-05-01T07:19:25;100790.50;;;18.95;39.50
13011;BME280;6786;57.632;11.962;2023-05-01T07:21:53;100771.75;;;18.95;39.62
13011;BME280;6786;57.632;11.962;2023-05-01T07:24:21;100790.50;;;18.95;39.70
13011;BME280;6786;57.632;11.962;2023-05-01T07:26:49;100776.13;;;18.96;39.61
13011;BME280;6786;57.632;11.962;2023-05-01T07:29:19;100765.41;;;18.96;39.60
13011;BME280;6786;57.632;11.962;2023-05-01T07:31:47;100769.94;;;18.95;39.73
13011;BME280;6786;57.632;11.962;2023-05-01T07:34:16;100760.06;;;18.96;39.76
13011;BME280;6786;57.632;11.962;2023-05-01T07:36:45;100769.06;;;18.95;39.63
13011;BME280;6786;57.632;11.962;2023-05-01T07:39:13;100751.31;;;18.94;39.68
13011;BME280;6786;57.632;11.962;2023-05-01T07:41:43;100756.41;;;18.97;39.73
13011;BME280;6786;57.632;11.962;2023-05-01T07:44:11;100743.16;;;18.95;39.67
13011;BME280;6786;57.632;11.962;2023-05-01T07:46:40;100747.66;;;18.95;39.72
13011;BME280;6786;57.632;11.962;2023-05-01T07:49:08;100744.84;;;18.96;39.71
13011;BME280;6786;57.632;11.962;2023-05-01T07:51:36;100740.34;;;18.97;39.76
13011;BME280;6786;57.632;11.962;2023-05-01T07:54:04;100728.44;;;18.90;39.69
13011;BME280;6786;57.632;11.962;2023-05-01T07:56:33;100735.25;;;18.94;39.75
13011;BME280;6786;57.632;11.962;2023-05-01T07:59:01;100734.25;;;18.95;39.74
13011;BME280;6786;57.632;11.962;2023-05-01T08:01:29;100730.59;;;18.96;39.85
13011;BME280;6786;57.632;11.962;2023-05-01T08:03:58;100724.28;;;18.97;39.83
13011;BME280;6786;57.632;11.962;2023-05-01T08:06:27;100722.56;;;18.96;39.75
13011;BME280;6786;57.632;11.962;2023-05-01T08:08:55;100717.19;;;18.96;39.75
13011;BME280;6786;57.632;11.962;2023-05-01T08:11:23;100718.91;;;18.97;39.91
13011;BME280;6786;57.632;11.962;2023-05-01T08:13:52;100717.19;;;18.96;39.86
13011;BME280;6786;57.632;11.962;2023-05-01T08:16:20;100724.28;;;18.97;39.94
13011;BME280;6786;57.632;11.962;2023-05-01T08:18:48;100724.28;;;18.97;39.79
13011;BME280;6786;57.632;11.962;2023-05-01T08:21:17;100718.91;;;18.97;39.81
13011;BME280;6786;57.632;11.962;2023-05-01T08:23:46;100718.91;;;18.97;39.83
13011;BME280;6786;57.632;11.962;2023-05-01T08:26:14;100718.91;;;18.97;39.83
13011;BME280;6786;57.632;11.962;2023-05-01T08:28:42;100713.56;;;18.97;39.90
13011;BME280;6786;57.632;11.962;2023-05-01T08:31:10;100712.69;;;18.96;39.99
13011;BME280;6786;57.632;11.962;2023-05-01T08:33:38;100706.50;;;18.96;39.94
13011;BME280;6786;57.632;11.962;2023-05-01T08:36:08;100702.84;;;18.97;39.83
13011;BME280;6786;57.632;11.962;2023-05-01T08:38:38;100697.50;;;18.97;39.85
13011;BME280;6786;57.632;11.962;2023-05-01T08:41:07;100695.78;;;18.96;39.90
13011;BME280;6786;57.632;11.962;2023-05-01T08:43:36;100702.84;;;18.97;39.88
13011;BME280;6786;57.632;11.962;2023-05-01T08:46:06;100701.00;;;18.97;39.85
13011;BME280;6786;57.632;11.962;2023-05-01T08:48:38;100704.53;;;18.98;39.86
13011;BME280;6786;57.632;11.962;2023-05-01T08:51:09;100705.53;;;18.97;40.08
13011;BME280;6786;57.632;11.962;2023-05-01T08:53:40;100696.75;;;18.95;39.85
13011;BME280;6786;57.632;11.962;2023-05-01T08:56:09;100690.69;;;18.93;39.94
13011;BME280;6786;57.632;11.962;2023-05-01T08:58:39;100683.38;;;18.95;39.89
13011;BME280;6786;57.632;11.962;2023-05-01T09:01:08;100688.72;;;18.95;40.01
13011;BME280;6786;57.632;11.962;2023-05-01T09:03:40;100662.31;;;18.81;40.01
13011;BME280;6786;57.632;11.962;2023-05-01T09:06:10;100674.34;;;18.96;40.04
13011;BME280;6786;57.632;11.962;2023-05-01T09:08:40;100669.00;;;18.96;40.10
13011;BME280;6786;57.632;11.962;2023-05-01T09:11:10;100668.16;;;18.95;39.99
13011;BME280;6786;57.632;11.962;2023-05-01T09:13:38;100633.94;;;18.69;39.84
13011;BME280;6786;57.632;11.962;2023-05-01T09:16:07;100669.00;;;18.96;40.01
13011;BME280;6786;57.632;11.962;2023-05-01T09:18:35;100667.31;;;18.95;40.08
13011;BME280;6786;57.632;11.962;2023-05-01T09:21:05;100665.34;;;18.97;40.08
13011;BME280;6786;57.632;11.962;2023-05-01T09:23:33;100665.34;;;18.97;40.08
13011;BME280;6786;57.632;11.962;2023-05-01T09:26:05;100670.72;;;18.97;40.10
13011;BME280;6786;57.632;11.962;2023-05-01T09:28:40;100670.72;;;18.97;40.29
13011;BME280;6786;57.632;11.962;2023-05-01T09:31:22;100656.31;;;18.98;40.38
13011;BME280;6786;57.632;11.962;2023-05-01T09:33:53;100660.00;;;18.97;40.13
13011;BME280;6786;57.632;11.962;2023-05-01T09:36:22;100662.66;;;18.97;40.08
13011;BME280;6786;57.632;11.962;2023-05-01T09:38:50;100655.47;;;18.97;40.06
13011;BME280;6786;57.632;11.962;2023-05-01T09:41:20;100650.97;;;18.98;40.23
13011;BME280;6786;57.632;11.962;2023-05-01T09:43:50;100651.81;;;18.98;40.10
13011;BME280;6786;57.632;11.962;2023-05-01T09:46:18;100615.38;;;18.77;40.10
13011;BME280;6786;57.632;11.962;2023-05-01T09:48:52;100643.66;;;19.00;40.07
13011;BME280;6786;57.632;11.962;2023-05-01T09:51:23;100645.34;;;19.01;40.17
13011;BME280;6786;57.632;11.962;2023-05-01T09:53:54;100639.97;;;19.01;40.10
13011;BME280;6786;57.632;11.962;2023-05-01T09:56:24;100643.66;;;19.00;40.13
13011;BME280;6786;57.632;11.962;2023-05-01T09:58:54;100641.94;;;18.99;40.19
13011;BME280;6786;57.632;11.962;2023-05-01T10:01:36;100624.19;;;18.98;40.59
13011;BME280;6786;57.632;11.962;2023-05-01T10:04:06;100635.63;;;19.00;40.17
13011;BME280;6786;57.632;11.962;2023-05-01T10:06:34;100631.22;;;18.99;40.26
13011;BME280;6786;57.632;11.962;2023-05-01T10:09:04;100631.22;;;18.99;40.14
13011;BME280;6786;57.632;11.962;2023-05-01T10:11:53;100621.63;;;18.96;40.49
13011;BME280;6786;57.632;11.962;2023-05-01T10:14:23;100615.28;;;18.97;40.24
13011;BME280;6786;57.632;11.962;2023-05-01T10:16:53;100616.28;;;18.96;40.22
13011;BME280;6786;57.632;11.962;2023-05-01T10:19:24;100610.94;;;18.96;40.45
13011;BME280;6786;57.632;11.962;2023-05-01T10:21:52;100606.44;;;18.97;40.41
13011;BME280;6786;57.632;11.962;2023-05-01T10:24:21;100606.44;;;18.97;40.19
13011;BME280;6786;57.632;11.962;2023-05-01T10:26:50;100606.44;;;18.97;40.32
13011;BME280;6786;57.632;11.962;2023-05-01T10:29:22;100620.50;;;18.99;40.47
13011;BME280;6786;57.632;11.962;2023-05-01T10:31:51;100599.09;;;18.99;40.34
13011;BME280;6786;57.632;11.962;2023-05-01T10:34:21;100593.72;;;18.99;40.38
13011;BME280;6786;57.632;11.962;2023-05-01T10:36:57;100587.53;;;18.98;40.33
13011;BME280;6786;57.632;11.962;2023-05-01T10:39:31;100550.25;;;18.76;40.43
13011;BME280;6786;57.632;11.962;2023-05-01T10:42:03;100579.66;;;18.97;40.42
13011;BME280;6786;57.632;11.962;2023-05-01T10:44:33;100580.47;;;18.97;40.42
13011;BME280;6786;57.632;11.962;2023-05-01T10:50:09;100574.28;;;18.97;40.40
13011;BME280;6786;57.632;11.962;2023-05-01T10:53:17;100558.22;;;18.97;40.79
13011;BME280;6786;57.632;11.962;2023-05-01T10:55:46;100577.94;;;18.96;40.41
13011;BME280;6786;57.632;11.962;2023-05-01T11:01:29;100557.50;;;18.95;40.83
13011;BME280;6786;57.632;11.962;2023-05-01T11:04:00;100557.50;;;18.95;40.18
13011;BME280;6786;57.632;11.962;2023-05-01T11:06:30;100536.47;;;18.81;40.37
13011;BME280;6786;57.632;11.962;2023-05-01T11:08:59;100554.81;;;18.95;40.51
13011;BME280;6786;57.632;11.962;2023-05-01T11:11:46;100515.03;;;18.81;40.75
13011;BME280;6786;57.632;11.962;2023-05-01T11:14:16;100545.78;;;18.96;40.58
13011;BME280;6786;57.632;11.962;2023-05-01T11:16:46;100550.31;;;18.95;40.56
13011;BME280;6786;57.632;11.962;2023-05-01T11:19:43;100535.09;;;18.96;40.81
13011;BME280;6786;57.632;11.962;2023-05-01T11:22:13;100531.44;;;18.97;40.47
13011;BME280;6786;57.632;11.962;2023-05-01T11:24:42;100527.91;;;18.96;40.60
13011;BME280;6786;57.632;11.962;2023-05-01T11:27:14;100529.72;;;18.96;40.56
13011;BME280;6786;57.632;11.962;2023-05-01T11:29:45;100524.38;;;18.96;40.63
13011;BME280;6786;57.632;11.962;2023-05-01T11:32:23;100535.94;;;18.96;40.76
13011;BME280;6786;57.632;11.962;2023-05-01T11:34:53;100519.00;;;18.96;40.61
13011;BME280;6786;57.632;11.962;2023-05-01T11:37:40;100526.09;;;18.97;40.97
13011;BME280;6786;57.632;11.962;2023-05-01T11:40:20;100526.09;;;18.97;40.88
13011;BME280;6786;57.632;11.962;2023-05-01T11:42:50;100526.09;;;18.97;40.62
13011;BME280;6786;57.632;11.962;2023-05-01T11:45:19;100517.34;;;18.95;40.66
13011;BME280;6786;57.632;11.962;2023-05-01T11:47:49;100512.69;;;18.97;40.64
13011;BME280;6786;57.632;11.962;2023-05-01T11:50:18;100521.56;;;18.97;40.66
13011;BME280;6786;57.632;11.962;2023-05-01T11:52:49;100515.38;;;18.97;40.55
13011;BME280;6786;57.632;11.962;2023-05-01T11:55:19;100501.97;;;18.97;40.67
13011;BME280;6786;57.632;11.962;2023-05-01T11:57:49;100504.94;;;18.94;40.60
13011;BME280;6786;57.632;11.962;2023-05-01T12:00:26;100497.44;;;18.97;40.78
13011;BME280;6786;57.632;11.962;2023-05-01T12:02:57;100484.06;;;18.97;40.62
13011;BME280;6786;57.632;11.962;2023-05-01T12:05:26;100492.22;;;18.96;40.70
13011;BME280;6786;57.632;11.962;2023-05-01T12:08:06;100405.69;;;18.48;41.13
13011;BME280;6786;57.632;11.962;2023-05-01T12:10:35;100484.91;;;18.98;40.52
13011;BME280;6786;57.632;11.962;2023-05-01T12:13:05;100484.06;;;18.97;40.79
13011;BME280;6786;57.632;11.962;2023-05-01T12:15:38;100484.06;;;18.97;40.82
13011;BME280;6786;57.632;11.962;2023-05-01T12:18:08;100482.25;;;18.98;40.77
13011;BME280;6786;57.632;11.962;2023-05-01T12:20:39;100479.56;;;18.98;40.79
13011;BME280;6786;57.632;11.962;2023-05-01T12:23:09;100457.00;;;18.91;40.67
13011;BME280;6786;57.632;11.962;2023-05-01T12:25:39;100458.13;;;18.98;40.79
13011;BME280;6786;57.632;11.962;2023-05-01T12:28:10;100458.13;;;18.98;40.82
13011;BME280;6786;57.632;11.962;2023-05-01T12:30:38;100457.28;;;18.97;40.82
13011;BME280;6786;57.632;11.962;2023-05-01T12:33:11;100455.59;;;18.96;40.83
13011;BME280;6786;57.632;11.962;2023-05-01T12:35:41;100430.25;;;18.91;40.80
13011;BME280;6786;57.632;11.962;2023-05-01T12:38:15;100435.03;;;18.97;40.92
13011;BME280;6786;57.632;11.962;2023-05-01T12:40:51;100428.81;;;18.96;41.05
13011;BME280;6786;57.632;11.962;2023-05-01T12:43:21;100432.50;;;18.95;40.77
13011;BME280;6786;57.632;11.962;2023-05-01T12:45:51;100433.31;;;18.96;40.79
13011;BME280;6786;57.632;11.962;2023-05-01T12:48:21;100424.47;;;18.95;40.74
13011;BME280;6786;57.632;11.962;2023-05-01T12:50:51;100424.31;;;18.97;40.73
13011;BME280;6786;57.632;11.962;2023-05-01T12:53:22;100416.28;;;18.97;40.92
13011;BME280;6786;57.632;11.962;2023-05-01T12:55:52;100418.97;;;18.97;40.95
13011;BME280;6786;57.632;11.962;2023-05-01T12:58:21;100418.97;;;18.97;40.98
13011;BME280;6786;57.632;11.962;2023-05-01T13:00:50;100411.06;;;18.95;40.87
13011;BME280;6786;57.632;11.962;2023-05-01T13:03:23;100406.53;;;18.96;40.90
13011;BME280;6786;57.632;11.962;2023-05-01T13:05:54;100407.25;;;18.98;40.97
13011;BME280;6786;57.632;11.962;2023-05-01T13:08:27;100397.53;;;18.97;40.93
13011;BME280;6786;57.632;11.962;2023-05-01T13:10:57;100394.84;;;18.97;40.87
13011;BME280;6786;57.632;11.962;2023-05-01T13:13:27;100398.34;;;18.97;40.81